createdAt,value
2022-12-01T00:00:11.064Z,53.22
2022-12-01T00:01:11.060Z,45.56
2022-12-01T00:02:11.137Z,49.76
2022-12-01T00:03:11.154Z,48.16
2022-12-01T00:04:11.062Z,52.44
2022-12-01T00:05:11.068Z,44.78
2022-12-01T00:06:14.057Z,53.74
2022-12-01T00:07:11.063Z,53.94
2022-12-01T00:08:11.071Z,44.98
2022-12-01T00:09:19.487Z,47.66
2022-12-01T00:10:15.058Z,59.36
2022-12-01T00:11:13.059Z,47.84
2022-12-01T00:12:11.061Z,54.44
2022-12-01T00:13:11.057Z,44.06
2022-12-01T00:14:11.062Z,48.38
2022-12-01T00:15:11.068Z,51.74
2022-12-01T00:16:15.090Z,47.70
2022-12-01T00:17:11.056Z,52.58
2022-12-01T00:18:11.061Z,47.74
2022-12-01T00:19:11.059Z,50.58
2022-12-01T00:20:11.056Z,41.30
2022-12-01T00:21:15.064Z,55.04
2022-12-01T00:22:11.061Z,55.12
2022-12-01T00:23:11.058Z,47.44
2022-12-01T00:24:11.061Z,52.52
2022-12-01T00:25:11.067Z,39.48
2022-12-01T00:26:11.059Z,55.86
2022-12-01T00:27:11.062Z,50.54
2022-12-01T00:28:11.068Z,50.60
2022-12-01T00:29:11.060Z,49.72
2022-12-01T00:30:11.057Z,51.24
2022-12-01T00:31:11.078Z,42.76
2022-12-01T00:32:11.152Z,41.36
2022-12-01T00:33:11.065Z,44.76
2022-12-01T00:34:19.071Z,44.10
2022-12-01T00:35:11.064Z,56.40
2022-12-01T00:36:11.060Z,47.46
2022-12-01T00:37:11.061Z,51.08
2022-12-01T00:38:11.062Z,54.24
2022-12-01T00:39:11.060Z,60.30
2022-12-01T00:40:11.061Z,54.00
2022-12-01T00:41:11.063Z,52.04
2022-12-01T00:42:13.378Z,52.54
2022-12-01T00:43:11.062Z,54.18
2022-12-01T00:44:11.072Z,48.56
2022-12-01T00:45:11.060Z,42.48
2022-12-01T00:46:11.077Z,50.10
2022-12-01T00:47:11.074Z,47.32
2022-12-01T00:48:11.061Z,47.66
2022-12-01T00:49:13.064Z,53.68
2022-12-01T00:50:11.070Z,61.00
2022-12-01T00:51:11.065Z,51.34
2022-12-01T00:52:11.064Z,52.96
2022-12-01T00:53:11.068Z,49.76
2022-12-01T00:54:11.063Z,46.12
2022-12-01T00:55:11.065Z,55.34
2022-12-01T00:56:11.069Z,45.96
2022-12-01T00:57:11.063Z,53.84
2022-12-01T00:58:11.059Z,56.04
2022-12-01T00:59:11.065Z,55.50
2022-12-01T01:00:11.063Z,55.82
2022-12-01T01:01:11.097Z,60.14
2022-12-01T01:02:11.152Z,55.86
2022-12-01T01:03:11.064Z,54.92
2022-12-01T01:04:11.063Z,52.76
2022-12-01T01:05:11.065Z,56.32
2022-12-01T01:06:13.068Z,54.86
2022-12-01T01:07:11.061Z,46.16
2022-12-01T01:08:11.069Z,53.90
2022-12-01T01:09:11.072Z,55.06
2022-12-01T01:10:11.061Z,50.52
2022-12-01T01:11:11.065Z,50.42
2022-12-01T01:12:11.073Z,47.16
2022-12-01T01:13:11.063Z,49.46
2022-12-01T01:14:11.066Z,56.62
2022-12-01T01:15:11.072Z,52.30
2022-12-01T01:16:18.102Z,42.44
2022-12-01T01:17:11.062Z,48.58
2022-12-01T01:18:11.066Z,56.44
2022-12-01T01:19:11.066Z,51.48
2022-12-01T01:20:11.059Z,55.26
2022-12-01T01:21:12.065Z,51.72
2022-12-01T01:22:11.064Z,43.92
2022-12-01T01:23:11.069Z,48.80
2022-12-01T01:24:11.064Z,48.86
2022-12-01T01:25:11.065Z,49.02
2022-12-01T01:26:21.064Z,52.04
2022-12-01T01:27:11.061Z,51.56
2022-12-01T01:28:11.072Z,49.64
2022-12-01T01:29:11.066Z,52.30
2022-12-01T01:30:11.062Z,53.50
2022-12-01T01:31:12.156Z,51.60
2022-12-01T01:32:11.065Z,48.78
2022-12-01T01:33:11.063Z,47.94
2022-12-01T01:34:11.069Z,47.94
2022-12-01T01:35:11.077Z,58.64
2022-12-01T01:36:11.066Z,56.94
2022-12-01T01:37:11.064Z,49.14
2022-12-01T01:38:11.068Z,44.78
2022-12-01T01:39:11.066Z,52.10
2022-12-01T01:40:11.064Z,52.58
2022-12-01T01:41:11.066Z,54.96
2022-12-01T01:42:13.065Z,52.78
2022-12-01T01:43:15.066Z,48.24
2022-12-01T01:44:19.067Z,51.40
2022-12-01T01:45:19.063Z,59.46
2022-12-01T01:46:12.088Z,57.84
2022-12-01T01:47:11.064Z,51.88
2022-12-01T01:48:12.064Z,41.84
2022-12-01T01:49:12.064Z,57.12
2022-12-01T01:50:14.073Z,54.12
2022-12-01T01:51:11.068Z,44.20
2022-12-01T01:52:11.067Z,54.04
2022-12-01T01:53:12.067Z,56.64
2022-12-01T01:54:14.066Z,44.26
2022-12-01T01:55:11.065Z,55.70
2022-12-01T01:56:11.067Z,60.12
2022-12-01T01:57:11.074Z,51.00
2022-12-01T01:58:11.067Z,56.86
2022-12-01T01:59:11.068Z,59.72
2022-12-01T02:00:12.076Z,64.46
2022-12-01T02:01:11.112Z,64.16
2022-12-01T02:02:11.154Z,54.84
2022-12-01T02:03:12.066Z,50.70
2022-12-01T02:04:11.067Z,45.66
2022-12-01T02:05:18.064Z,50.54
2022-12-01T02:06:11.067Z,48.14
2022-12-01T02:07:11.073Z,55.54
2022-12-01T02:08:15.066Z,54.92
2022-12-01T02:09:12.070Z,53.26
2022-12-01T02:10:12.076Z,52.80
2022-12-01T02:11:19.068Z,43.60
2022-12-01T02:12:19.062Z,53.04
2022-12-01T02:13:19.066Z,52.28
2022-12-01T02:14:20.076Z,46.26
2022-12-01T02:15:19.067Z,54.30
2022-12-01T02:16:14.205Z,53.12
2022-12-01T02:17:21.066Z,53.34
2022-12-01T02:18:19.070Z,56.42
2022-12-01T02:19:19.067Z,58.76
2022-12-01T02:20:19.067Z,51.66
2022-12-01T02:21:19.066Z,58.66
2022-12-01T02:22:21.068Z,53.98
2022-12-01T02:23:19.075Z,55.64
2022-12-01T02:24:19.068Z,50.78
2022-12-01T02:25:21.067Z,60.90
2022-12-01T02:26:21.063Z,58.48
2022-12-01T02:27:19.068Z,53.00
2022-12-01T02:28:21.078Z,59.92
2022-12-01T02:29:21.079Z,62.86
2022-12-01T02:30:16.071Z,56.72
2022-12-01T02:31:16.166Z,64.84
2022-12-01T02:32:21.068Z,55.24
2022-12-01T02:33:19.083Z,49.62
2022-12-01T02:34:19.069Z,53.48
2022-12-01T02:35:19.068Z,52.14
2022-12-01T02:36:17.064Z,57.00
2022-12-01T02:37:19.067Z,62.04
2022-12-01T02:38:18.077Z,50.52
2022-12-01T02:39:19.069Z,54.14
2022-12-01T02:40:21.070Z,54.52
2022-12-01T02:41:20.069Z,56.24
2022-12-01T02:42:20.067Z,60.80
2022-12-01T02:43:17.070Z,55.02
2022-12-01T02:44:18.069Z,54.64
2022-12-01T02:45:16.067Z,55.34
2022-12-01T02:46:18.128Z,49.24
2022-12-01T02:47:15.071Z,52.08
2022-12-01T02:48:14.058Z,50.14
2022-12-01T02:49:17.056Z,45.52
2022-12-01T02:50:11.059Z,37.42
2022-12-01T02:51:19.069Z,45.18
2022-12-01T02:52:13.064Z,48.66
2022-12-01T02:53:11.056Z,48.28
2022-12-01T02:54:11.057Z,45.68
2022-12-01T02:55:11.057Z,44.06
2022-12-01T02:56:12.061Z,47.12
2022-12-01T02:57:13.056Z,42.74
2022-12-01T02:58:15.058Z,49.46
2022-12-01T02:59:14.071Z,45.10
2022-12-01T03:00:11.060Z,40.86
2022-12-01T03:01:19.095Z,44.60
2022-12-01T03:02:21.107Z,39.52
2022-12-01T03:03:21.061Z,46.80
2022-12-01T03:04:19.063Z,41.52
2022-12-01T03:05:21.068Z,48.66
2022-12-01T03:06:19.067Z,42.64
2022-12-01T03:07:23.108Z,42.68
2022-12-01T03:08:19.057Z,37.72
2022-12-01T03:09:23.055Z,47.04
2022-12-01T03:10:19.060Z,40.46
2022-12-01T03:11:11.059Z,40.06
2022-12-01T03:12:19.058Z,40.34
2022-12-01T03:13:19.058Z,37.80
2022-12-01T03:14:18.061Z,42.48
2022-12-01T03:15:19.060Z,42.24
2022-12-01T03:16:19.120Z,47.18
2022-12-01T03:17:15.057Z,43.80
2022-12-01T03:18:21.062Z,41.78
2022-12-01T03:19:19.058Z,34.40
2022-12-01T03:20:16.065Z,39.52
2022-12-01T03:21:18.074Z,42.70
2022-12-01T03:22:14.058Z,39.78
2022-12-01T03:23:14.058Z,46.28
2022-12-01T03:24:13.067Z,42.88
2022-12-01T03:25:11.058Z,36.54
2022-12-01T03:26:14.060Z,41.68
2022-12-01T03:27:11.062Z,38.02
2022-12-01T03:28:22.256Z,44.24
2022-12-01T03:29:19.075Z,41.36
2022-12-01T03:30:14.065Z,41.08
2022-12-01T03:31:15.134Z,39.54
2022-12-01T03:32:18.059Z,50.84
2022-12-01T03:33:17.063Z,41.18
2022-12-01T03:34:14.094Z,41.08
2022-12-01T03:35:15.062Z,42.68
2022-12-01T03:36:16.063Z,51.14
2022-12-01T03:37:16.061Z,45.30
2022-12-01T03:38:19.076Z,45.66
2022-12-01T03:39:15.061Z,45.72
2022-12-01T03:40:17.059Z,52.52
2022-12-01T03:41:16.061Z,45.80
2022-12-01T03:42:16.080Z,44.50
2022-12-01T03:43:13.062Z,45.18
2022-12-01T03:44:20.060Z,52.80
2022-12-01T03:45:15.063Z,42.94
2022-12-01T03:46:18.177Z,47.58
2022-12-01T03:47:14.063Z,48.14
2022-12-01T03:48:11.059Z,49.58
2022-12-01T03:49:12.060Z,50.84
2022-12-01T03:50:11.068Z,46.66
2022-12-01T03:51:19.060Z,44.68
2022-12-01T03:52:19.065Z,53.70
2022-12-01T03:53:19.064Z,38.30
2022-12-01T03:54:19.073Z,54.26
2022-12-01T03:55:19.063Z,50.30
2022-12-01T03:56:11.059Z,52.70
2022-12-01T03:57:13.062Z,45.96
2022-12-01T03:58:19.065Z,46.96
2022-12-01T03:59:11.060Z,49.50
2022-12-01T04:00:11.063Z,41.92
2022-12-01T04:01:11.094Z,44.54
2022-12-01T04:02:11.150Z,48.74
2022-12-01T04:03:15.103Z,44.56
2022-12-01T04:04:11.064Z,40.88
2022-12-01T04:05:11.063Z,44.22
2022-12-01T04:06:11.058Z,41.06
2022-12-01T04:07:11.064Z,45.92
2022-12-01T04:08:11.087Z,42.96
2022-12-01T04:09:11.058Z,41.74
2022-12-01T04:10:11.066Z,40.32
2022-12-01T04:11:15.065Z,34.82
2022-12-01T04:12:15.067Z,40.24
2022-12-01T04:13:11.064Z,49.50
2022-12-01T04:14:11.069Z,42.12
2022-12-01T04:15:12.060Z,33.88
2022-12-01T04:16:11.087Z,37.94
2022-12-01T04:17:11.071Z,41.38
2022-12-01T04:18:11.063Z,43.14
2022-12-01T04:19:11.060Z,38.94
2022-12-01T04:20:13.072Z,33.06
2022-12-01T04:21:11.064Z,39.38
2022-12-01T04:22:11.064Z,39.56
2022-12-01T04:23:11.063Z,31.70
2022-12-01T04:24:11.064Z,31.50
2022-12-01T04:25:11.062Z,37.16
2022-12-01T04:26:15.579Z,37.68
2022-12-01T04:27:11.071Z,35.30
2022-12-01T04:28:11.063Z,31.72
2022-12-01T04:29:11.069Z,37.58
2022-12-01T04:30:11.094Z,26.80
2022-12-01T04:31:11.107Z,30.70
2022-12-01T04:32:11.061Z,30.16
2022-12-01T04:33:11.067Z,21.70
2022-12-01T04:34:11.078Z,28.66
2022-12-01T04:35:11.063Z,31.52
2022-12-01T04:36:11.063Z,28.34
2022-12-01T04:37:11.065Z,22.72
2022-12-01T04:38:11.066Z,26.36
2022-12-01T04:39:11.065Z,37.04
2022-12-01T04:40:11.066Z,31.46
2022-12-01T04:41:13.068Z,30.54
2022-12-01T04:42:11.071Z,27.98
2022-12-01T04:43:11.068Z,33.44
2022-12-01T04:44:11.063Z,23.48
2022-12-01T04:45:11.063Z,25.66
2022-12-01T04:46:11.107Z,32.40
2022-12-01T04:47:11.064Z,27.72
2022-12-01T04:48:11.068Z,30.72
2022-12-01T04:49:11.072Z,30.20
2022-12-01T04:50:11.067Z,28.62
2022-12-01T04:51:11.069Z,26.52
2022-12-01T04:52:11.074Z,29.60
2022-12-01T04:53:11.067Z,26.62
2022-12-01T04:54:11.067Z,23.56
2022-12-01T04:55:11.066Z,29.48
2022-12-01T04:56:11.068Z,26.52
2022-12-01T04:57:11.064Z,20.54
2022-12-01T04:58:11.065Z,26.24
2022-12-01T04:59:11.068Z,19.78
2022-12-01T05:00:15.065Z,22.30
2022-12-01T05:01:11.196Z,20.06
2022-12-01T05:02:11.124Z,26.48
2022-12-01T05:03:15.061Z,22.70
2022-12-01T05:04:12.067Z,19.86
2022-12-01T05:05:11.066Z,20.14
2022-12-01T05:06:13.067Z,26.36
2022-12-01T05:07:11.067Z,24.98
2022-12-01T05:08:11.075Z,20.52
2022-12-01T05:09:17.171Z,25.30
2022-12-01T05:10:11.065Z,26.82
2022-12-01T05:11:13.070Z,27.02
2022-12-01T05:12:11.074Z,30.28
2022-12-01T05:13:11.066Z,26.72
2022-12-01T05:14:11.065Z,22.72
2022-12-01T05:15:11.069Z,29.88
2022-12-01T05:16:11.148Z,24.60
2022-12-01T05:17:11.068Z,22.22
2022-12-01T05:18:11.141Z,28.80
2022-12-01T05:19:15.068Z,28.32
2022-12-01T05:20:19.066Z,29.76
2022-12-01T05:21:11.068Z,26.92
2022-12-01T05:22:11.068Z,23.52
2022-12-01T05:23:16.499Z,24.32
2022-12-01T05:24:13.070Z,23.18
2022-12-01T05:25:11.073Z,27.38
2022-12-01T05:26:11.077Z,29.76
2022-12-01T05:27:11.068Z,33.64
2022-12-01T05:28:11.065Z,22.48
2022-12-01T05:29:11.076Z,24.40
2022-12-01T05:30:11.068Z,36.64
2022-12-01T05:31:11.128Z,28.90
2022-12-01T05:32:11.067Z,31.54
2022-12-01T05:33:11.069Z,27.62
2022-12-01T05:34:11.067Z,29.46
2022-12-01T05:35:11.068Z,27.20
2022-12-01T05:36:11.076Z,25.28
2022-12-01T05:37:11.066Z,28.60
2022-12-01T05:38:11.080Z,24.70
2022-12-01T05:39:11.077Z,29.62
2022-12-01T05:40:11.071Z,27.84
2022-12-01T05:41:11.065Z,27.60
2022-12-01T05:42:11.078Z,23.78
2022-12-01T05:43:11.073Z,27.56
2022-12-01T05:44:11.068Z,27.82
2022-12-01T05:45:11.084Z,28.46
2022-12-01T05:46:11.118Z,27.76
2022-12-01T05:47:11.066Z,23.38
2022-12-01T05:48:11.058Z,28.82
2022-12-01T05:49:11.057Z,27.54
2022-12-01T05:50:11.055Z,24.22
2022-12-01T05:51:14.056Z,28.06
2022-12-01T05:52:11.060Z,29.68
2022-12-01T05:53:12.056Z,24.74
2022-12-01T05:54:11.057Z,28.54
2022-12-01T05:55:11.065Z,41.16
2022-12-01T05:56:11.056Z,28.60
2022-12-01T05:57:11.059Z,23.74
2022-12-01T05:58:11.066Z,26.92
2022-12-01T05:59:11.056Z,28.42
2022-12-01T06:00:11.057Z,33.12
2022-12-01T06:01:11.076Z,25.52
2022-12-01T06:02:11.105Z,28.18
2022-12-01T06:03:11.058Z,27.88
2022-12-01T06:04:11.100Z,35.54
2022-12-01T06:05:11.062Z,24.90
2022-12-01T06:06:11.057Z,25.62
2022-12-01T06:07:11.065Z,29.14
2022-12-01T06:08:11.056Z,34.40
2022-12-01T06:09:11.060Z,30.54
2022-12-01T06:10:11.065Z,31.04
2022-12-01T06:11:11.060Z,23.86
2022-12-01T06:12:11.061Z,25.76
2022-12-01T06:13:11.066Z,37.86
2022-12-01T06:14:11.056Z,25.16
2022-12-01T06:15:11.054Z,31.60
2022-12-01T06:16:11.060Z,33.70
2022-12-01T06:17:11.060Z,27.98
2022-12-01T06:18:11.056Z,26.34
2022-12-01T06:19:11.060Z,29.70
2022-12-01T06:20:11.061Z,27.96
2022-12-01T06:21:11.057Z,32.86
2022-12-01T06:22:11.059Z,35.70
2022-12-01T06:23:11.059Z,28.32
2022-12-01T06:24:11.058Z,36.90
2022-12-01T06:25:11.060Z,34.52
2022-12-01T06:26:11.062Z,32.36
2022-12-01T06:27:11.057Z,31.74
2022-12-01T06:28:11.058Z,39.20
2022-12-01T06:29:11.060Z,36.36
2022-12-01T06:30:11.058Z,32.32
2022-12-01T06:31:11.061Z,39.94
2022-12-01T06:32:11.088Z,30.76
2022-12-01T06:33:11.059Z,39.78
2022-12-01T06:34:11.060Z,26.72
2022-12-01T06:35:11.066Z,29.20
2022-12-01T06:36:11.059Z,36.82
2022-12-01T06:37:11.062Z,33.12
2022-12-01T06:38:11.078Z,33.44
2022-12-01T06:39:11.058Z,34.60
2022-12-01T06:40:11.066Z,32.58
2022-12-01T06:41:11.067Z,32.16
2022-12-01T06:42:11.058Z,30.90
2022-12-01T06:43:11.064Z,33.86
2022-12-01T06:44:11.070Z,39.94
2022-12-01T06:45:11.060Z,41.00
2022-12-01T06:46:11.074Z,36.06
2022-12-01T06:47:11.068Z,30.66
2022-12-01T06:48:11.060Z,29.62
2022-12-01T06:49:13.066Z,33.18
2022-12-01T06:50:12.069Z,29.88
2022-12-01T06:51:11.199Z,27.00
2022-12-01T06:52:11.059Z,29.34
2022-12-01T06:53:11.065Z,28.40
2022-12-01T06:54:11.063Z,26.64
2022-12-01T06:55:11.067Z,25.24
2022-12-01T06:56:11.065Z,22.10
2022-12-01T06:57:11.063Z,28.62
2022-12-01T06:58:11.059Z,27.22
2022-12-01T06:59:11.061Z,25.98
2022-12-01T07:00:11.062Z,28.94
2022-12-01T07:01:11.104Z,29.18
2022-12-01T07:02:12.183Z,27.46
2022-12-01T07:03:11.063Z,35.30
2022-12-01T07:04:11.063Z,30.02
2022-12-01T07:05:11.065Z,24.08
2022-12-01T07:06:11.064Z,27.36
2022-12-01T07:07:11.061Z,32.74
2022-12-01T07:08:11.078Z,29.72
2022-12-01T07:09:11.069Z,34.98
2022-12-01T07:10:11.060Z,34.64
2022-12-01T07:11:11.062Z,31.58
2022-12-01T07:12:11.070Z,39.62
2022-12-01T07:13:11.061Z,32.92
2022-12-01T07:14:20.074Z,30.40
2022-12-01T07:15:11.064Z,33.52
2022-12-01T07:16:11.123Z,33.26
2022-12-01T07:17:11.118Z,36.24
2022-12-01T07:18:11.063Z,42.22
2022-12-01T07:19:11.065Z,34.38
2022-12-01T07:20:11.064Z,31.52
2022-12-01T07:21:12.063Z,40.28
2022-12-01T07:22:11.067Z,33.82
2022-12-01T07:23:11.062Z,43.54
2022-12-01T07:24:11.063Z,40.52
2022-12-01T07:25:11.070Z,45.52
2022-12-01T07:26:13.062Z,32.78
2022-12-01T07:27:11.067Z,41.34
2022-12-01T07:28:11.073Z,48.00
2022-12-01T07:29:11.061Z,39.32
2022-12-01T07:30:11.065Z,37.16
2022-12-01T07:31:14.126Z,38.98
2022-12-01T07:32:11.064Z,36.18
2022-12-01T07:33:11.060Z,44.48
2022-12-01T07:34:12.076Z,43.04
2022-12-01T07:35:11.065Z,41.28
2022-12-01T07:36:11.061Z,39.20
2022-12-01T07:37:11.080Z,28.54
2022-12-01T07:38:11.065Z,37.06
2022-12-01T07:39:11.064Z,41.68
2022-12-01T07:40:11.065Z,37.94
2022-12-01T07:41:11.065Z,42.62
2022-12-01T07:42:11.062Z,43.56
2022-12-01T07:43:11.064Z,34.32
2022-12-01T07:44:11.066Z,28.72
2022-12-01T07:45:11.063Z,32.84
2022-12-01T07:46:22.576Z,31.98
2022-12-01T07:47:13.401Z,33.96
2022-12-01T07:48:11.066Z,35.24
2022-12-01T07:49:11.071Z,35.14
2022-12-01T07:50:11.064Z,26.28
2022-12-01T07:51:11.072Z,30.44
2022-12-01T07:52:11.065Z,35.86
2022-12-01T07:53:11.068Z,35.40
2022-12-01T07:54:11.070Z,39.02
2022-12-01T07:55:11.063Z,37.76
2022-12-01T07:56:11.065Z,36.20
2022-12-01T07:57:11.068Z,45.08
2022-12-01T07:58:11.065Z,34.44
2022-12-01T07:59:11.070Z,40.70
2022-12-01T08:00:11.080Z,39.78
2022-12-01T08:01:11.148Z,38.44
2022-12-01T08:02:11.223Z,39.64
2022-12-01T08:03:11.168Z,38.50
2022-12-01T08:04:11.074Z,46.28
2022-12-01T08:05:11.062Z,40.36
2022-12-01T08:06:11.070Z,33.70
2022-12-01T08:07:11.068Z,36.78
2022-12-01T08:08:11.152Z,34.50
2022-12-01T08:09:11.069Z,40.66
2022-12-01T08:10:11.067Z,40.60
2022-12-01T08:11:14.063Z,39.38
2022-12-01T08:12:11.065Z,39.68
2022-12-01T08:13:16.981Z,41.98
2022-12-01T08:14:13.050Z,40.28
2022-12-01T08:15:11.079Z,41.74
2022-12-01T08:16:11.078Z,41.20
2022-12-01T08:17:11.068Z,37.00
2022-12-01T08:18:11.065Z,40.54
2022-12-01T08:19:11.075Z,44.64
2022-12-01T08:20:11.067Z,52.42
2022-12-01T08:21:11.088Z,46.42
2022-12-01T08:22:11.087Z,42.96
2022-12-01T08:23:11.078Z,45.86
2022-12-01T08:24:12.081Z,42.52
2022-12-01T08:25:11.074Z,54.38
2022-12-01T08:26:12.098Z,46.58
2022-12-01T08:27:11.066Z,44.98
2022-12-01T08:28:11.076Z,44.32
2022-12-01T08:29:14.600Z,40.54
2022-12-01T08:30:13.051Z,45.26
2022-12-01T08:31:18.144Z,43.58
2022-12-01T08:32:11.077Z,46.92
2022-12-01T08:33:11.066Z,42.78
2022-12-01T08:34:11.068Z,40.50
2022-12-01T08:35:11.084Z,46.08
2022-12-01T08:36:11.066Z,41.56
2022-12-01T08:37:11.072Z,40.14
2022-12-01T08:38:11.077Z,41.16
2022-12-01T08:39:11.082Z,44.88
2022-12-01T08:40:11.081Z,36.22
2022-12-01T08:41:11.071Z,42.88
2022-12-01T08:42:11.073Z,39.68
2022-12-01T08:43:28.318Z,43.28
2022-12-01T08:44:13.075Z,47.12
2022-12-01T08:45:11.079Z,39.78
2022-12-01T08:46:13.105Z,39.44
2022-12-01T08:47:14.334Z,42.76
2022-12-01T08:48:13.038Z,68.26
2022-12-01T08:49:11.060Z,48.56
2022-12-01T08:50:11.053Z,43.44
2022-12-01T08:51:17.068Z,44.70
2022-12-01T08:52:11.060Z,43.70
2022-12-01T08:53:11.058Z,48.04
2022-12-01T08:54:12.057Z,34.02
2022-12-01T08:55:11.059Z,44.60
2022-12-01T08:56:16.059Z,41.66
2022-12-01T08:57:11.063Z,45.72
2022-12-01T08:58:11.066Z,45.44
2022-12-01T08:59:11.064Z,42.54
2022-12-01T09:00:11.057Z,44.06
2022-12-01T09:01:12.060Z,37.36
2022-12-01T09:02:15.133Z,35.66
2022-12-01T09:03:11.130Z,38.22
2022-12-01T09:04:11.056Z,41.48
2022-12-01T09:05:11.059Z,45.26
2022-12-01T09:06:16.057Z,35.64
2022-12-01T09:07:11.058Z,35.28
2022-12-01T09:08:15.094Z,44.40
2022-12-01T09:09:11.058Z,35.96
2022-12-01T09:10:11.060Z,40.16
2022-12-01T09:11:14.062Z,43.92
2022-12-01T09:12:11.058Z,40.16
2022-12-01T09:13:11.060Z,35.40
2022-12-01T09:14:11.059Z,41.88
2022-12-01T09:15:11.059Z,33.30
2022-12-01T09:16:14.166Z,37.74
2022-12-01T09:17:11.057Z,44.84
2022-12-01T09:18:11.062Z,43.94
2022-12-01T09:19:13.167Z,43.12
2022-12-01T09:20:11.064Z,37.16
2022-12-01T09:21:15.069Z,41.14
2022-12-01T09:22:11.059Z,43.10
2022-12-01T09:23:11.056Z,41.68
2022-12-01T09:24:12.062Z,42.70
2022-12-01T09:25:12.060Z,27.32
2022-12-01T09:26:13.748Z,33.78
2022-12-01T09:27:11.062Z,34.24
2022-12-01T09:28:11.059Z,34.52
2022-12-01T09:29:11.059Z,34.32
2022-12-01T09:30:11.059Z,28.32
2022-12-01T09:31:11.144Z,29.76
2022-12-01T09:32:11.059Z,37.04
2022-12-01T09:33:11.058Z,47.98
2022-12-01T09:34:12.062Z,31.68
2022-12-01T09:35:11.058Z,30.64
2022-12-01T09:36:12.062Z,31.22
2022-12-01T09:37:11.061Z,33.86
2022-12-01T09:38:11.059Z,37.84
2022-12-01T09:39:13.060Z,32.64
2022-12-01T09:40:13.062Z,34.54
2022-12-01T09:41:22.060Z,34.62
2022-12-01T09:42:15.058Z,35.16
2022-12-01T09:43:18.064Z,32.86
2022-12-01T09:44:22.060Z,35.20
2022-12-01T09:45:17.060Z,36.88
2022-12-01T09:46:15.106Z,28.96
2022-12-01T09:47:20.067Z,28.10
2022-12-01T09:48:19.069Z,28.30
2022-12-01T09:49:17.064Z,29.14
2022-12-01T09:50:19.061Z,22.38
2022-12-01T09:51:18.074Z,25.30
2022-12-01T09:52:14.060Z,23.64
2022-12-01T09:53:13.076Z,27.20
2022-12-01T09:54:13.062Z,22.76
2022-12-01T09:55:17.063Z,21.94
2022-12-01T09:56:19.069Z,21.80
2022-12-01T09:57:16.062Z,24.76
2022-12-01T09:58:16.059Z,24.52
2022-12-01T09:59:18.067Z,24.72
2022-12-01T10:00:18.063Z,30.04
2022-12-01T10:01:17.160Z,29.72
2022-12-01T10:02:19.131Z,29.76
2022-12-01T10:03:19.062Z,20.66
2022-12-01T10:04:18.103Z,25.10
2022-12-01T10:05:16.141Z,25.56
2022-12-01T10:06:27.373Z,27.32
2022-12-01T10:07:21.126Z,31.12
2022-12-01T10:08:15.059Z,30.28
2022-12-01T10:09:22.067Z,31.48
2022-12-01T10:10:16.071Z,33.76
2022-12-01T10:11:25.064Z,31.96
2022-12-01T10:12:15.064Z,27.22
2022-12-01T10:13:19.058Z,36.68
2022-12-01T10:14:20.113Z,32.28
2022-12-01T10:15:19.065Z,25.90
2022-12-01T10:16:18.112Z,30.96
2022-12-01T10:17:22.063Z,34.56
2022-12-01T10:18:22.063Z,29.40
2022-12-01T10:19:19.061Z,25.16
2022-12-01T10:20:19.091Z,25.24
2022-12-01T10:21:22.065Z,27.38
2022-12-01T10:22:19.076Z,32.00
2022-12-01T10:23:19.065Z,28.58
2022-12-01T10:24:19.062Z,28.36
2022-12-01T10:25:19.064Z,29.20
2022-12-01T10:26:19.072Z,25.26
2022-12-01T10:27:19.065Z,29.26
2022-12-01T10:28:19.062Z,27.96
2022-12-01T10:29:12.063Z,34.38
2022-12-01T10:30:16.074Z,26.12
2022-12-01T10:31:18.126Z,29.96
2022-12-01T10:32:18.062Z,30.22
2022-12-01T10:33:19.060Z,34.22
2022-12-01T10:34:15.064Z,30.66
2022-12-01T10:35:15.070Z,32.12
2022-12-01T10:36:11.064Z,31.90
2022-12-01T10:37:19.122Z,32.72
2022-12-01T10:38:19.067Z,29.28
2022-12-01T10:39:19.064Z,28.56
2022-12-01T10:40:16.065Z,31.02
2022-12-01T10:41:14.064Z,21.84
2022-12-01T10:42:21.068Z,27.76
2022-12-01T10:43:11.074Z,29.86
2022-12-01T10:44:11.067Z,25.22
2022-12-01T10:45:19.065Z,20.54
2022-12-01T10:46:19.137Z,23.74
2022-12-01T10:47:19.065Z,26.08
2022-12-01T10:48:19.068Z,26.86
2022-12-01T10:49:11.063Z,22.40
2022-12-01T10:50:15.073Z,32.24
2022-12-01T10:51:15.068Z,30.52
2022-12-01T10:52:19.067Z,24.96
2022-12-01T10:53:19.069Z,27.86
2022-12-01T10:54:11.066Z,33.68
2022-12-01T10:55:19.066Z,22.66
2022-12-01T10:56:18.066Z,29.38
2022-12-01T10:57:15.064Z,31.72
2022-12-01T10:58:15.066Z,26.52
2022-12-01T10:59:19.068Z,28.02
2022-12-01T11:00:30.155Z,22.96
2022-12-01T11:01:24.244Z,18.26
2022-12-01T11:02:16.221Z,18.88
2022-12-01T11:03:21.694Z,21.60
2022-12-01T11:04:19.067Z,21.08
2022-12-01T11:05:19.067Z,21.96
2022-12-01T11:06:11.064Z,23.64
2022-12-01T11:07:19.068Z,24.84
2022-12-01T11:08:19.070Z,21.16
2022-12-01T11:09:26.147Z,26.40
2022-12-01T11:10:19.067Z,25.22
2022-12-01T11:11:19.068Z,28.30
2022-12-01T11:12:16.073Z,29.60
2022-12-01T11:13:19.069Z,25.76
2022-12-01T11:14:18.071Z,26.78
2022-12-01T11:15:18.079Z,25.98
2022-12-01T11:16:19.107Z,22.60
2022-12-01T11:17:19.069Z,22.74
2022-12-01T11:18:19.066Z,33.86
2022-12-01T11:19:23.496Z,24.12
2022-12-01T11:20:21.908Z,25.46
2022-12-01T11:21:15.079Z,23.90
2022-12-01T11:22:19.074Z,29.44
2022-12-01T11:23:19.067Z,25.26
2022-12-01T11:24:19.070Z,30.34
2022-12-01T11:25:19.073Z,26.66
2022-12-01T11:26:19.072Z,28.70
2022-12-01T11:27:19.068Z,25.70
2022-12-01T11:28:19.069Z,26.06
2022-12-01T11:29:19.067Z,26.08
2022-12-01T11:30:19.079Z,26.22
2022-12-01T11:31:11.069Z,21.68
2022-12-01T11:32:19.152Z,26.78
2022-12-01T11:33:15.074Z,24.70
2022-12-01T11:34:19.079Z,24.52
2022-12-01T11:35:16.081Z,28.80
2022-12-01T11:36:16.035Z,22.88
2022-12-01T11:37:17.069Z,24.66
2022-12-01T11:38:30.429Z,18.22
2022-12-01T11:39:24.039Z,24.26
2022-12-01T11:40:19.078Z,22.44
2022-12-01T11:41:19.072Z,22.80
2022-12-01T11:42:19.073Z,19.50
2022-12-01T11:43:22.070Z,22.98
2022-12-01T11:44:43.113Z,23.82
2022-12-01T11:45:21.059Z,21.34
2022-12-01T11:46:11.167Z,25.32
2022-12-01T11:47:23.110Z,20.96
2022-12-01T11:48:21.029Z,18.34
2022-12-01T11:49:18.077Z,27.30
2022-12-01T11:50:19.106Z,18.62
2022-12-01T11:51:15.057Z,25.82
2022-12-01T11:52:22.061Z,24.12
2022-12-01T11:53:19.062Z,27.24
2022-12-01T11:54:16.068Z,25.52
2022-12-01T11:55:21.062Z,27.80
2022-12-01T11:56:19.060Z,21.98
2022-12-01T11:57:33.259Z,24.24
2022-12-01T11:58:13.236Z,22.66
2022-12-01T11:59:16.060Z,20.64
2022-12-01T12:00:19.138Z,22.14
2022-12-01T12:01:22.240Z,19.68
2022-12-01T12:02:19.195Z,22.22
2022-12-01T12:03:22.134Z,23.16
2022-12-01T12:04:19.060Z,21.94
2022-12-01T12:05:19.059Z,25.28
2022-12-01T12:06:40.013Z,23.52
2022-12-01T12:07:24.118Z,23.92
2022-12-01T12:08:19.059Z,19.82
2022-12-01T12:09:22.067Z,23.76
2022-12-01T12:10:19.060Z,19.66
2022-12-01T12:11:19.059Z,19.06
2022-12-01T12:12:19.057Z,22.60
2022-12-01T12:13:19.064Z,20.20
2022-12-01T12:14:19.066Z,23.90
2022-12-01T12:15:22.061Z,22.68
2022-12-01T12:16:20.060Z,24.58
2022-12-01T12:17:19.079Z,29.64
2022-12-01T12:18:19.062Z,23.76
2022-12-01T12:19:22.416Z,27.74
2022-12-01T12:20:21.121Z,26.64
2022-12-01T12:21:22.061Z,25.06
2022-12-01T12:22:19.058Z,27.08
2022-12-01T12:23:19.057Z,29.12
2022-12-01T12:24:19.060Z,29.92
2022-12-01T12:25:22.070Z,25.58
2022-12-01T12:26:19.063Z,26.84
2022-12-01T12:27:22.062Z,30.62
2022-12-01T12:28:22.060Z,26.96
2022-12-01T12:29:22.057Z,32.34
2022-12-01T12:30:19.064Z,28.92
2022-12-01T12:31:19.084Z,27.88
2022-12-01T12:32:19.069Z,32.24
2022-12-01T12:33:19.063Z,32.50
2022-12-01T12:34:18.058Z,31.76
2022-12-01T12:35:19.071Z,24.42
2022-12-01T12:36:19.063Z,27.40
2022-12-01T12:37:19.071Z,32.22
2022-12-01T12:38:20.064Z,33.24
2022-12-01T12:39:19.062Z,26.20
2022-12-01T12:40:19.067Z,28.82
2022-12-01T12:41:19.065Z,31.56
2022-12-01T12:42:19.074Z,32.72
2022-12-01T12:43:22.063Z,31.46
2022-12-01T12:44:22.076Z,29.50
2022-12-01T12:45:22.061Z,33.24
2022-12-01T12:46:22.069Z,30.82
2022-12-01T12:47:22.065Z,32.16
2022-12-01T12:48:22.070Z,32.78
2022-12-01T12:49:22.074Z,28.72
2022-12-01T12:50:20.520Z,34.76
2022-12-01T12:51:20.061Z,33.60
2022-12-01T12:52:18.061Z,30.90